sensor_id;sensor_type;location;lat;lon;timestamp;P1;durP1;ratioP1;P2;durP2;ratioP2
23730;SDS011;12046;44.702;10.622;2022-09-09T00:06:55;10.18;;;6.00;;
23730;SDS011;12046;44.702;10.622;2022-09-09T00:09:24;9.07;;;5.75;;
23730;SDS011;12046;44.702;10.622;2022-09-09T00:12:05;7.35;;;4.68;;
23730;SDS011;12046;44.702;10.622;2022-09-09T00:14:38;8.73;;;4.93;;
23730;SDS011;12046;44.702;10.622;2022-09-09T00:17:36;7.72;;;4.93;;
23730;SDS011;12046;44.702;10.622;2022-09-09T00:22:49;5.93;;;5.15;;
23730;SDS011;12046;44.702;10.622;2022-09-09T00:25:21;9.45;;;5.20;;
23730;SDS011;12046;44.702;10.622;2022-09-09T00:27:59;9.55;;;6.07;;
23730;SDS011;12046;44.702;10.622;2022-09-09T00:30:27;11.88;;;5.75;;
23730;SDS011;12046;44.702;10.622;2022-09-09T00:33:00;8.53;;;5.63;;
23730;SDS011;12046;44.702;10.622;2022-09-09T00:35:34;12.93;;;6.40;;
23730;SDS011;12046;44.702;10.622;2022-09-09T00:38:11;8.90;;;6.63;;
23730;SDS011;12046;44.702;10.622;2022-09-09T00:51:25;10.57;;;6.97;;
23730;SDS011;12046;44.702;10.622;2022-09-09T00:54:15;14.30;;;8.02;;
23730;SDS011;12046;44.702;10.622;2022-09-09T00:57:13;17.50;;;7.75;;
23730;SDS011;12046;44.702;10.622;2022-09-09T00:59:50;9.32;;;7.63;;
23730;SDS011;12046;44.702;10.622;2022-09-09T01:02:43;17.00;;;8.30;;
23730;SDS011;12046;44.702;10.622;2022-09-09T01:05:20;12.88;;;7.60;;
23730;SDS011;12046;44.702;10.622;2022-09-09T01:07:52;19.08;;;7.82;;
23730;SDS011;12046;44.702;10.622;2022-09-09T01:10:37;8.63;;;7.60;;
23730;SDS011;12046;44.702;10.622;2022-09-09T01:13:25;12.30;;;7.85;;
23730;SDS011;12046;44.702;10.622;2022-09-09T01:15:56;11.57;;;8.65;;
23730;SDS011;12046;44.702;10.622;2022-09-09T01:18:48;10.93;;;7.50;;
23730;SDS011;12046;44.702;10.622;2022-09-09T01:26:46;9.30;;;7.13;;
23730;SDS011;12046;44.702;10.622;2022-09-09T01:29:16;11.82;;;7.38;;
23730;SDS011;12046;44.702;10.622;2022-09-09T01:31:54;10.50;;;7.25;;
23730;SDS011;12046;44.702;10.622;2022-09-09T01:34:22;11.32;;;8.63;;
23730;SDS011;12046;44.702;10.622;2022-09-09T01:39:25;11.38;;;7.47;;
23730;SDS011;12046;44.702;10.622;2022-09-09T01:41:52;8.48;;;6.57;;
23730;SDS011;12046;44.702;10.622;2022-09-09T01:44:20;9.20;;;6.45;;
23730;SDS011;12046;44.702;10.622;2022-09-09T01:46:47;8.07;;;5.20;;
23730;SDS011;12046;44.702;10.622;2022-09-09T01:49:13;7.30;;;4.80;;
23730;SDS011;12046;44.702;10.622;2022-09-09T01:51:39;6.88;;;4.32;;
23730;SDS011;12046;44.702;10.622;2022-09-09T01:54:07;6.57;;;4.20;;
23730;SDS011;12046;44.702;10.622;2022-09-09T02:04:58;5.93;;;3.25;;
23730;SDS011;12046;44.702;10.622;2022-09-09T02:07:49;4.85;;;3.47;;
23730;SDS011;12046;44.702;10.622;2022-09-09T02:10:22;7.85;;;4.00;;
23730;SDS011;12046;44.702;10.622;2022-09-09T02:13:12;6.70;;;3.70;;
23730;SDS011;12046;44.702;10.622;2022-09-09T02:18:38;6.03;;;3.50;;
23730;SDS011;12046;44.702;10.622;2022-09-09T02:21:24;5.38;;;3.72;;
23730;SDS011;12046;44.702;10.622;2022-09-09T02:23:53;4.65;;;3.47;;
23730;SDS011;12046;44.702;10.622;2022-09-09T02:26:22;7.47;;;3.90;;
23730;SDS011;12046;44.702;10.622;2022-09-09T02:28:49;13.00;;;7.82;;
23730;SDS011;12046;44.702;10.622;2022-09-09T02:31:17;10.88;;;7.72;;
23730;SDS011;12046;44.702;10.622;2022-09-09T02:33:47;8.48;;;5.65;;
23730;SDS011;12046;44.702;10.622;2022-09-09T02:36:19;12.18;;;8.73;;
23730;SDS011;12046;44.702;10.622;2022-09-09T02:38:48;15.73;;;7.88;;
23730;SDS011;12046;44.702;10.622;2022-09-09T02:41:37;9.93;;;7.28;;
23730;SDS011;12046;44.702;10.622;2022-09-09T02:44:10;7.05;;;5.00;;
23730;SDS011;12046;44.702;10.622;2022-09-09T02:46:47;8.48;;;4.82;;
23730;SDS011;12046;44.702;10.622;2022-09-09T02:49:50;10.85;;;6.53;;
23730;SDS011;12046;44.702;10.622;2022-09-09T02:52:15;11.23;;;6.65;;
23730;SDS011;12046;44.702;10.622;2022-09-09T02:54:47;8.50;;;5.93;;
23730;SDS011;12046;44.702;10.622;2022-09-09T02:57:24;9.85;;;6.63;;
23730;SDS011;12046;44.702;10.622;2022-09-09T02:59:53;12.98;;;6.57;;
23730;SDS011;12046;44.702;10.622;2022-09-09T03:02:22;8.50;;;6.50;;
23730;SDS011;12046;44.702;10.622;2022-09-09T03:04:48;7.97;;;4.45;;
23730;SDS011;12046;44.702;10.622;2022-09-09T03:07:17;8.60;;;3.97;;
23730;SDS011;12046;44.702;10.622;2022-09-09T03:09:43;7.30;;;5.25;;
23730;SDS011;12046;44.702;10.622;2022-09-09T03:12:10;8.15;;;5.63;;
23730;SDS011;12046;44.702;10.622;2022-09-09T03:14:37;6.78;;;5.30;;
23730;SDS011;12046;44.702;10.622;2022-09-09T03:17:04;11.45;;;5.72;;
23730;SDS011;12046;44.702;10.622;2022-09-09T03:19:31;10.63;;;5.78;;
23730;SDS011;12046;44.702;10.622;2022-09-09T03:21:57;13.20;;;6.65;;
23730;SDS011;12046;44.702;10.622;2022-09-09T03:24:24;14.57;;;6.85;;
23730;SDS011;12046;44.702;10.622;2022-09-09T03:26:51;8.40;;;5.63;;
23730;SDS011;12046;44.702;10.622;2022-09-09T03:29:17;6.25;;;4.75;;
23730;SDS011;12046;44.702;10.622;2022-09-09T03:31:43;7.85;;;4.55;;
23730;SDS011;12046;44.702;10.622;2022-09-09T03:34:10;5.38;;;4.05;;
23730;SDS011;12046;44.702;10.622;2022-09-09T03:36:36;10.23;;;4.35;;
23730;SDS011;12046;44.702;10.622;2022-09-09T03:39:02;8.35;;;4.95;;
23730;SDS011;12046;44.702;10.622;2022-09-09T03:41:29;9.98;;;4.38;;
23730;SDS011;12046;44.702;10.622;2022-09-09T03:43:55;10.05;;;4.60;;
23730;SDS011;12046;44.702;10.622;2022-09-09T03:46:22;11.82;;;5.47;;
23730;SDS011;12046;44.702;10.622;2022-09-09T03:48:49;6.68;;;4.53;;
23730;SDS011;12046;44.702;10.622;2022-09-09T03:51:16;7.05;;;4.22;;
23730;SDS011;12046;44.702;10.622;2022-09-09T03:53:43;6.90;;;4.85;;
23730;SDS011;12046;44.702;10.622;2022-09-09T03:56:09;8.50;;;4.28;;
23730;SDS011;12046;44.702;10.622;2022-09-09T03:58:36;6.68;;;4.13;;
23730;SDS011;12046;44.702;10.622;2022-09-09T04:01:04;6.35;;;4.22;;
23730;SDS011;12046;44.702;10.622;2022-09-09T04:03:35;7.65;;;4.68;;
23730;SDS011;12046;44.702;10.622;2022-09-09T04:06:01;5.05;;;3.60;;
23730;SDS011;12046;44.702;10.622;2022-09-09T04:08:29;4.65;;;3.67;;
23730;SDS011;12046;44.702;10.622;2022-09-09T04:10:58;5.05;;;3.40;;
23730;SDS011;12046;44.702;10.622;2022-09-09T04:13:26;5.60;;;3.60;;
23730;SDS011;12046;44.702;10.622;2022-09-09T04:15:59;6.45;;;2.85;;
23730;SDS011;12046;44.702;10.622;2022-09-09T04:18:26;5.93;;;2.50;;
23730;SDS011;12046;44.702;10.622;2022-09-09T04:20:53;3.40;;;2.47;;
23730;SDS011;12046;44.702;10.622;2022-09-09T04:23:22;5.72;;;2.95;;
23730;SDS011;12046;44.702;10.622;2022-09-09T04:25:50;5.40;;;3.30;;
23730;SDS011;12046;44.702;10.622;2022-09-09T04:28:18;6.13;;;3.20;;
23730;SDS011;12046;44.702;10.622;2022-09-09T04:30:45;3.67;;;2.72;;
23730;SDS011;12046;44.702;10.622;2022-09-09T04:33:11;5.55;;;1.95;;
23730;SDS011;12046;44.702;10.622;2022-09-09T04:35:38;4.90;;;2.28;;
23730;SDS011;12046;44.702;10.622;2022-09-09T04:38:08;5.78;;;2.70;;
23730;SDS011;12046;44.702;10.622;2022-09-09T04:40:34;5.53;;;2.17;;
23730;SDS011;12046;44.702;10.622;2022-09-09T04:43:01;5.70;;;2.10;;
23730;SDS011;12046;44.702;10.622;2022-09-09T04:45:31;4.57;;;2.25;;
23730;SDS011;12046;44.702;10.622;2022-09-09T04:47:57;4.22;;;1.80;;
23730;SDS011;12046;44.702;10.622;2022-09-09T04:50:23;2.45;;;1.83;;
23730;SDS011;12046;44.702;10.622;2022-09-09T04:52:50;4.60;;;2.10;;
23730;SDS011;12046;44.702;10.622;2022-09-09T04:55:16;8.15;;;2.67;;
23730;SDS011;12046;44.702;10.622;2022-09-09T04:57:42;3.85;;;1.67;;
23730;SDS011;12046;44.702;10.622;2022-09-09T05:00:09;4.32;;;2.20;;
23730;SDS011;12046;44.702;10.622;2022-09-09T05:02:39;3.05;;;2.00;;
23730;SDS011;12046;44.702;10.622;2022-09-09T05:05:05;3.28;;;2.50;;
23730;SDS011;12046;44.702;10.622;2022-09-09T05:07:32;3.40;;;2.63;;
23730;SDS011;12046;44.702;10.622;2022-09-09T05:09:57;8.07;;;2.88;;
23730;SDS011;12046;44.702;10.622;2022-09-09T05:12:23;10.93;;;2.42;;
23730;SDS011;12046;44.702;10.622;2022-09-09T05:14:53;7.07;;;2.38;;
23730;SDS011;12046;44.702;10.622;2022-09-09T05:17:19;5.68;;;2.25;;
23730;SDS011;12046;44.702;10.622;2022-09-09T05:19:45;5.05;;;1.42;;
23730;SDS011;12046;44.702;10.622;2022-09-09T05:22:18;2.38;;;1.58;;
23730;SDS011;12046;44.702;10.622;2022-09-09T05:24:45;7.03;;;1.65;;
23730;SDS011;12046;44.702;10.622;2022-09-09T05:27:11;4.07;;;1.70;;
23730;SDS011;12046;44.702;10.622;2022-09-09T05:29:38;3.28;;;1.70;;
23730;SDS011;12046;44.702;10.622;2022-09-09T05:32:04;5.30;;;1.90;;
23730;SDS011;12046;44.702;10.622;2022-09-09T05:34:30;6.20;;;2.25;;
23730;SDS011;12046;44.702;10.622;2022-09-09T05:36:56;5.30;;;2.35;;
23730;SDS011;12046;44.702;10.622;2022-09-09T05:39:22;4.07;;;2.58;;
23730;SDS011;12046;44.702;10.622;2022-09-09T05:41:48;5.22;;;3.45;;
23730;SDS011;12046;44.702;10.622;2022-09-09T05:44:13;6.00;;;3.33;;
23730;SDS011;12046;44.702;10.622;2022-09-09T05:46:39;6.88;;;3.30;;
23730;SDS011;12046;44.702;10.622;2022-09-09T05:49:06;9.23;;;4.53;;
23730;SDS011;12046;44.702;10.622;2022-09-09T05:51:33;15.05;;;5.10;;
23730;SDS011;12046;44.702;10.622;2022-09-09T05:53:59;9.90;;;6.22;;
23730;SDS011;12046;44.702;10.622;2022-09-09T05:56:26;10.38;;;6.05;;
23730;SDS011;12046;44.702;10.622;2022-09-09T05:58:53;9.93;;;5.57;;
23730;SDS011;12046;44.702;10.622;2022-09-09T06:01:30;7.68;;;5.65;;
23730;SDS011;12046;44.702;10.622;2022-09-09T06:03:57;8.85;;;3.92;;
23730;SDS011;12046;44.702;10.622;2022-09-09T06:06:24;7.68;;;4.47;;
23730;SDS011;12046;44.702;10.622;2022-09-09T06:08:53;4.93;;;2.50;;
23730;SDS011;12046;44.702;10.622;2022-09-09T06:11:22;10.20;;;3.20;;
23730;SDS011;12046;44.702;10.622;2022-09-09T06:13:49;9.73;;;4.10;;
23730;SDS011;12046;44.702;10.622;2022-09-09T06:16:19;7.80;;;4.82;;
23730;SDS011;12046;44.702;10.622;2022-09-09T06:18:48;12.45;;;5.88;;
23730;SDS011;12046;44.702;10.622;2022-09-09T06:21:17;9.05;;;5.78;;
23730;SDS011;12046;44.702;10.622;2022-09-09T06:23:48;14.02;;;7.82;;
23730;SDS011;12046;44.702;10.622;2022-09-09T06:26:20;10.13;;;6.90;;
23730;SDS011;12046;44.702;10.622;2022-09-09T06:28:48;10.27;;;6.57;;
23730;SDS011;12046;44.702;10.622;2022-09-09T06:31:16;13.45;;;8.10;;
23730;SDS011;12046;44.702;10.622;2022-09-09T06:33:47;15.07;;;8.77;;
23730;SDS011;12046;44.702;10.622;2022-09-09T06:36:15;14.65;;;9.73;;
23730;SDS011;12046;44.702;10.622;2022-09-09T06:38:43;15.68;;;9.52;;
23730;SDS011;12046;44.702;10.622;2022-09-09T06:41:10;19.50;;;11.00;;
23730;SDS011;12046;44.702;10.622;2022-09-09T06:43:37;17.85;;;11.27;;
23730;SDS011;12046;44.702;10.622;2022-09-09T06:46:05;22.70;;;11.73;;
23730;SDS011;12046;44.702;10.622;2022-09-09T06:48:42;22.08;;;11.63;;
23730;SDS011;12046;44.702;10.622;2022-09-09T06:51:12;21.33;;;11.60;;
23730;SDS011;12046;44.702;10.622;2022-09-09T06:53:41;20.13;;;11.43;;
23730;SDS011;12046;44.702;10.622;2022-09-09T06:58:48;24.58;;;12.05;;
23730;SDS011;12046;44.702;10.622;2022-09-09T07:01:19;22.50;;;12.00;;
23730;SDS011;12046;44.702;10.622;2022-09-09T07:03:50;19.27;;;12.18;;
23730;SDS011;12046;44.702;10.622;2022-09-09T07:06:28;22.08;;;11.05;;
23730;SDS011;12046;44.702;10.622;2022-09-09T07:09:01;21.13;;;12.15;;
23730;SDS011;12046;44.702;10.622;2022-09-09T07:11:30;22.58;;;12.52;;
23730;SDS011;12046;44.702;10.622;2022-09-09T07:13:58;27.05;;;12.98;;
23730;SDS011;12046;44.702;10.622;2022-09-09T07:16:25;22.83;;;12.07;;
23730;SDS011;12046;44.702;10.622;2022-09-09T07:18:53;22.73;;;11.88;;
23730;SDS011;12046;44.702;10.622;2022-09-09T07:21:23;22.73;;;11.88;;
23730;SDS011;12046;44.702;10.622;2022-09-09T07:23:51;23.95;;;13.30;;
23730;SDS011;12046;44.702;10.622;2022-09-09T07:26:19;24.80;;;12.07;;
23730;SDS011;12046;44.702;10.622;2022-09-09T07:28:47;24.38;;;12.15;;
23730;SDS011;12046;44.702;10.622;2022-09-09T07:31:17;21.73;;;12.07;;
23730;SDS011;12046;44.702;10.622;2022-09-09T07:33:45;22.85;;;12.27;;
23730;SDS011;12046;44.702;10.622;2022-09-09T07:36:16;22.77;;;13.10;;
23730;SDS011;12046;44.702;10.622;2022-09-09T07:39:01;26.88;;;12.73;;
23730;SDS011;12046;44.702;10.622;2022-09-09T07:43:59;20.73;;;12.30;;
23730;SDS011;12046;44.702;10.622;2022-09-09T07:46:29;19.95;;;12.90;;
23730;SDS011;12046;44.702;10.622;2022-09-09T07:48:56;23.45;;;12.95;;
23730;SDS011;12046;44.702;10.622;2022-09-09T07:51:29;20.52;;;12.93;;
23730;SDS011;12046;44.702;10.622;2022-09-09T07:53:58;22.27;;;14.07;;
23730;SDS011;12046;44.702;10.622;2022-09-09T07:56:27;21.85;;;13.73;;
23730;SDS011;12046;44.702;10.622;2022-09-09T07:58:55;23.20;;;13.55;;
23730;SDS011;12046;44.702;10.622;2022-09-09T08:01:25;20.83;;;14.07;;
23730;SDS011;12046;44.702;10.622;2022-09-09T08:04:05;24.38;;;14.57;;
23730;SDS011;12046;44.702;10.622;2022-09-09T08:06:35;24.45;;;13.60;;
23730;SDS011;12046;44.702;10.622;2022-09-09T08:09:03;21.63;;;12.52;;
23730;SDS011;12046;44.702;10.622;2022-09-09T08:11:29;24.25;;;14.65;;
23730;SDS011;12046;44.702;10.622;2022-09-09T08:13:56;26.45;;;14.80;;
23730;SDS011;12046;44.702;10.622;2022-09-09T08:16:23;22.73;;;14.48;;
23730;SDS011;12046;44.702;10.622;2022-09-09T08:18:55;22.33;;;14.70;;
23730;SDS011;12046;44.702;10.622;2022-09-09T08:21:22;23.10;;;15.75;;
23730;SDS011;12046;44.702;10.622;2022-09-09T08:23:56;19.25;;;14.40;;
23730;SDS011;12046;44.702;10.622;2022-09-09T08:28:52;21.55;;;15.55;;
23730;SDS011;12046;44.702;10.622;2022-09-09T08:31:20;22.00;;;15.00;;
23730;SDS011;12046;44.702;10.622;2022-09-09T08:33:47;22.85;;;15.00;;
23730;SDS011;12046;44.702;10.622;2022-09-09T08:36:22;22.60;;;15.38;;
23730;SDS011;12046;44.702;10.622;2022-09-09T08:38:52;22.83;;;16.10;;
23730;SDS011;12046;44.702;10.622;2022-09-09T08:47:21;24.73;;;15.40;;
23730;SDS011;12046;44.702;10.622;2022-09-09T08:58:27;19.20;;;12.80;;
23730;SDS011;12046;44.702;10.622;2022-09-09T09:06:49;14.88;;;10.38;;
23730;SDS011;12046;44.702;10.622;2022-09-09T09:09:27;18.13;;;12.27;;
23730;SDS011;12046;44.702;10.622;2022-09-09T09:12:30;16.85;;;10.50;;
23730;SDS011;12046;44.702;10.622;2022-09-09T09:15:08;20.38;;;11.10;;
23730;SDS011;12046;44.702;10.622;2022-09-09T09:17:42;17.10;;;12.13;;
23730;SDS011;12046;44.702;10.622;2022-09-09T09:20:12;15.13;;;10.48;;
23730;SDS011;12046;44.702;10.622;2022-09-09T09:22:51;17.73;;;11.20;;
23730;SDS011;12046;44.702;10.622;2022-09-09T09:25:27;18.02;;;9.38;;
23730;SDS011;12046;44.702;10.622;2022-09-09T09:28:00;22.15;;;11.23;;
23730;SDS011;12046;44.702;10.622;2022-09-09T09:36:07;16.60;;;8.75;;
23730;SDS011;12046;44.702;10.622;2022-09-09T09:38:34;16.42;;;8.75;;
23730;SDS011;12046;44.702;10.622;2022-09-09T09:41:02;13.75;;;9.15;;
23730;SDS011;12046;44.702;10.622;2022-09-09T09:43:29;14.18;;;8.27;;
23730;SDS011;12046;44.702;10.622;2022-09-09T09:45:56;13.02;;;8.52;;
23730;SDS011;12046;44.702;10.622;2022-09-09T09:48:24;10.77;;;7.97;;
23730;SDS011;12046;44.702;10.622;2022-09-09T09:51:09;11.25;;;7.60;;
23730;SDS011;12046;44.702;10.622;2022-09-09T09:53:40;12.85;;;7.10;;
23730;SDS011;12046;44.702;10.622;2022-09-09T09:56:10;10.65;;;7.93;;
23730;SDS011;12046;44.702;10.622;2022-09-09T10:03:50;11.18;;;7.57;;
23730;SDS011;12046;44.702;10.622;2022-09-09T10:06:28;14.77;;;7.85;;
23730;SDS011;12046;44.702;10.622;2022-09-09T10:08:58;16.30;;;8.40;;
23730;SDS011;12046;44.702;10.622;2022-09-09T10:11:30;9.52;;;7.03;;
23730;SDS011;12046;44.702;10.622;2022-09-09T10:14:30;11.70;;;5.90;;
23730;SDS011;12046;44.702;10.622;2022-09-09T10:26:13;6.32;;;4.43;;
23730;SDS011;12046;44.702;10.622;2022-09-09T10:29:03;9.07;;;4.65;;
23730;SDS011;12046;44.702;10.622;2022-09-09T10:32:11;5.82;;;4.38;;
23730;SDS011;12046;44.702;10.622;2022-09-09T10:34:58;8.10;;;4.70;;
23730;SDS011;12046;44.702;10.622;2022-09-09T10:40:34;8.55;;;4.68;;
23730;SDS011;12046;44.702;10.622;2022-09-09T10:46:15;4.97;;;2.67;;
23730;SDS011;12046;44.702;10.622;2022-09-09T10:52:09;5.50;;;2.10;;
23730;SDS011;12046;44.702;10.622;2022-09-09T10:57:43;4.05;;;1.67;;
23730;SDS011;12046;44.702;10.622;2022-09-09T11:00:19;6.40;;;1.85;;
23730;SDS011;12046;44.702;10.622;2022-09-09T11:02:48;2.83;;;1.50;;
23730;SDS011;12046;44.702;10.622;2022-09-09T11:05:29;5.30;;;1.38;;
23730;SDS011;12046;44.702;10.622;2022-09-09T11:08:14;5.45;;;1.92;;
23730;SDS011;12046;44.702;10.622;2022-09-09T11:11:03;3.70;;;1.88;;
23730;SDS011;12046;44.702;10.622;2022-09-09T11:13:54;5.07;;;1.60;;
23730;SDS011;12046;44.702;10.622;2022-09-09T11:16:53;5.47;;;3.05;;
23730;SDS011;12046;44.702;10.622;2022-09-09T11:19:34;4.22;;;2.50;;
23730;SDS011;12046;44.702;10.622;2022-09-09T11:25:20;5.35;;;2.88;;
23730;SDS011;12046;44.702;10.622;2022-09-09T11:28:21;7.45;;;2.53;;
23730;SDS011;12046;44.702;10.622;2022-09-09T11:34:33;5.18;;;2.15;;
23730;SDS011;12046;44.702;10.622;2022-09-09T11:43:03;6.65;;;2.83;;
23730;SDS011;12046;44.702;10.622;2022-09-09T11:45:41;4.03;;;2.33;;
23730;SDS011;12046;44.702;10.622;2022-09-09T11:51:09;5.32;;;2.53;;
23730;SDS011;12046;44.702;10.622;2022-09-09T11:53:51;3.97;;;2.25;;
23730;SDS011;12046;44.702;10.622;2022-09-09T11:56:25;4.63;;;2.10;;
23730;SDS011;12046;44.702;10.622;2022-09-09T12:01:27;3.00;;;1.10;;
23730;SDS011;12046;44.702;10.622;2022-09-09T12:06:52;2.78;;;1.25;;
23730;SDS011;12046;44.702;10.622;2022-09-09T12:09:23;1.35;;;0.95;;
23730;SDS011;12046;44.702;10.622;2022-09-09T12:14:42;1.90;;;1.05;;
23730;SDS011;12046;44.702;10.622;2022-09-09T12:20:30;6.30;;;1.42;;
23730;SDS011;12046;44.702;10.622;2022-09-09T12:23:14;2.10;;;1.08;;
23730;SDS011;12046;44.702;10.622;2022-09-09T12:28:54;2.13;;;1.25;;
23730;SDS011;12046;44.702;10.622;2022-09-09T12:34:02;3.97;;;1.00;;
23730;SDS011;12046;44.702;10.622;2022-09-09T12:36:36;3.95;;;1.50;;
23730;SDS011;12046;44.702;10.622;2022-09-09T12:39:15;4.22;;;1.33;;
23730;SDS011;12046;44.702;10.622;2022-09-09T12:41:53;2.33;;;1.00;;
23730;SDS011;12046;44.702;10.622;2022-09-09T12:44:22;2.83;;;1.40;;
23730;SDS011;12046;44.702;10.622;2022-09-09T12:46:50;1.95;;;0.90;;
23730;SDS011;12046;44.702;10.622;2022-09-09T12:49:37;2.92;;;1.10;;
23730;SDS011;12046;44.702;10.622;2022-09-09T12:54:52;3.92;;;1.35;;
23730;SDS011;12046;44.702;10.622;2022-09-09T12:57:29;3.67;;;1.50;;
23730;SDS011;12046;44.702;10.622;2022-09-09T13:00:11;7.45;;;1.42;;
23730;SDS011;12046;44.702;10.622;2022-09-09T13:02:47;3.35;;;1.63;;
23730;SDS011;12046;44.702;10.622;2022-09-09T13:05:27;2.15;;;1.38;;
23730;SDS011;12046;44.702;10.622;2022-09-09T13:08:05;4.53;;;1.25;;
23730;SDS011;12046;44.702;10.622;2022-09-09T13:10:36;1.85;;;0.93;;
23730;SDS011;12046;44.702;10.622;2022-09-09T13:13:15;3.15;;;1.33;;
23730;SDS011;12046;44.702;10.622;2022-09-09T13:15:56;2.40;;;2.20;;
23730;SDS011;12046;44.702;10.622;2022-09-09T13:18:24;3.33;;;1.33;;
23730;SDS011;12046;44.702;10.622;2022-09-09T13:20:53;2.30;;;1.23;;
23730;SDS011;12046;44.702;10.622;2022-09-09T13:23:23;3.72;;;1.25;;
23730;SDS011;12046;44.702;10.622;2022-09-09T13:26:02;3.22;;;1.33;;
23730;SDS011;12046;44.702;10.622;2022-09-09T13:28:31;3.78;;;1.20;;
23730;SDS011;12046;44.702;10.622;2022-09-09T13:30:59;2.55;;;1.20;;
23730;SDS011;12046;44.702;10.622;2022-09-09T13:33:44;2.53;;;1.42;;
23730;SDS011;12046;44.702;10.622;2022-09-09T13:38:40;2.13;;;1.17;;
23730;SDS011;12046;44.702;10.622;2022-09-09T13:41:23;3.40;;;1.23;;
23730;SDS011;12046;44.702;10.622;2022-09-09T13:43:54;4.57;;;1.23;;
23730;SDS011;12046;44.702;10.622;2022-09-09T13:46:33;2.67;;;1.30;;
23730;SDS011;12046;44.702;10.622;2022-09-09T13:49:17;3.85;;;1.65;;
23730;SDS011;12046;44.702;10.622;2022-09-09T13:51:47;2.50;;;1.10;;
23730;SDS011;12046;44.702;10.622;2022-09-09T13:54:19;2.05;;;1.40;;
23730;SDS011;12046;44.702;10.622;2022-09-09T13:56:46;3.30;;;1.35;;
23730;SDS011;12046;44.702;10.622;2022-09-09T13:59:15;4.20;;;1.23;;
23730;SDS011;12046;44.702;10.622;2022-09-09T14:01:47;3.30;;;1.10;;
23730;SDS011;12046;44.702;10.622;2022-09-09T14:04:22;5.30;;;1.20;;
23730;SDS011;12046;44.702;10.622;2022-09-09T14:06:49;2.50;;;1.13;;
23730;SDS011;12046;44.702;10.622;2022-09-09T14:09:16;4.95;;;1.10;;
23730;SDS011;12046;44.702;10.622;2022-09-09T14:11:44;1.10;;;1.00;;
23730;SDS011;12046;44.702;10.622;2022-09-09T14:14:14;4.45;;;1.00;;
23730;SDS011;12046;44.702;10.622;2022-09-09T14:16:43;2.25;;;1.17;;
23730;SDS011;12046;44.702;10.622;2022-09-09T14:19:09;2.97;;;1.13;;
23730;SDS011;12046;44.702;10.622;2022-09-09T14:21:38;4.43;;;1.25;;
23730;SDS011;12046;44.702;10.622;2022-09-09T14:24:04;3.90;;;1.52;;
23730;SDS011;12046;44.702;10.622;2022-09-09T14:26:31;2.90;;;1.77;;
23730;SDS011;12046;44.702;10.622;2022-09-09T14:28:57;3.63;;;1.40;;
23730;SDS011;12046;44.702;10.622;2022-09-09T14:31:24;5.78;;;1.25;;
23730;SDS011;12046;44.702;10.622;2022-09-09T14:33:50;3.53;;;1.27;;
23730;SDS011;12046;44.702;10.622;2022-09-09T14:36:16;3.22;;;1.27;;
23730;SDS011;12046;44.702;10.622;2022-09-09T14:38:42;7.47;;;1.25;;
23730;SDS011;12046;44.702;10.622;2022-09-09T14:41:18;1.77;;;1.10;;
23730;SDS011;12046;44.702;10.622;2022-09-09T14:43:47;2.25;;;1.08;;
23730;SDS011;12046;44.702;10.622;2022-09-09T14:46:15;3.60;;;1.20;;
23730;SDS011;12046;44.702;10.622;2022-09-09T14:48:45;3.60;;;1.40;;
23730;SDS011;12046;44.702;10.622;2022-09-09T14:51:15;3.63;;;1.40;;
23730;SDS011;12046;44.702;10.622;2022-09-09T14:53:43;3.83;;;1.20;;
23730;SDS011;12046;44.702;10.622;2022-09-09T14:56:11;4.03;;;1.10;;
23730;SDS011;12046;44.702;10.622;2022-09-09T14:58:41;5.13;;;1.88;;
23730;SDS011;12046;44.702;10.622;2022-09-09T15:01:08;5.32;;;1.40;;
23730;SDS011;12046;44.702;10.622;2022-09-09T15:03:39;3.72;;;1.50;;
23730;SDS011;12046;44.702;10.622;2022-09-09T15:06:09;3.33;;;1.27;;
23730;SDS011;12046;44.702;10.622;2022-09-09T15:08:37;3.75;;;1.50;;
23730;SDS011;12046;44.702;10.622;2022-09-09T15:11:09;4.55;;;1.33;;
23730;SDS011;12046;44.702;10.622;2022-09-09T15:13:37;4.47;;;1.52;;
23730;SDS011;12046;44.702;10.622;2022-09-09T15:16:08;3.67;;;1.45;;
23730;SDS011;12046;44.702;10.622;2022-09-09T15:18:42;2.60;;;1.40;;
23730;SDS011;12046;44.702;10.622;2022-09-09T15:21:16;4.18;;;1.67;;
23730;SDS011;12046;44.702;10.622;2022-09-09T15:23:47;3.03;;;1.13;;
23730;SDS011;12046;44.702;10.622;2022-09-09T15:26:13;2.80;;;1.52;;
23730;SDS011;12046;44.702;10.622;2022-09-09T15:28:40;4.72;;;1.60;;
23730;SDS011;12046;44.702;10.622;2022-09-09T15:31:12;3.45;;;1.23;;
23730;SDS011;12046;44.702;10.622;2022-09-09T15:33:40;4.25;;;1.50;;
23730;SDS011;12046;44.702;10.622;2022-09-09T15:38:48;2.78;;;1.73;;
23730;SDS011;12046;44.702;10.622;2022-09-09T15:41:16;4.03;;;1.20;;
23730;SDS011;12046;44.702;10.622;2022-09-09T15:43:43;5.10;;;1.60;;
23730;SDS011;12046;44.702;10.622;2022-09-09T15:49:02;4.20;;;1.63;;
23730;SDS011;12046;44.702;10.622;2022-09-09T15:51:36;4.07;;;1.50;;
23730;SDS011;12046;44.702;10.622;2022-09-09T15:54:04;3.58;;;1.52;;
23730;SDS011;12046;44.702;10.622;2022-09-09T15:56:30;3.67;;;1.60;;
23730;SDS011;12046;44.702;10.622;2022-09-09T15:59:01;2.45;;;1.27;;
23730;SDS011;12046;44.702;10.622;2022-09-09T16:01:28;7.82;;;1.63;;
23730;SDS011;12046;44.702;10.622;2022-09-09T16:03:56;2.78;;;1.30;;
23730;SDS011;12046;44.702;10.622;2022-09-09T16:06:23;2.85;;;1.63;;
23730;SDS011;12046;44.702;10.622;2022-09-09T16:08:50;6.50;;;2.17;;
23730;SDS011;12046;44.702;10.622;2022-09-09T16:13:46;3.70;;;2.08;;
23730;SDS011;12046;44.702;10.622;2022-09-09T16:16:17;8.45;;;2.30;;
23730;SDS011;12046;44.702;10.622;2022-09-09T16:18:48;4.60;;;2.17;;
23730;SDS011;12046;44.702;10.622;2022-09-09T16:21:18;5.25;;;2.33;;
23730;SDS011;12046;44.702;10.622;2022-09-09T16:23:56;6.93;;;2.40;;
23730;SDS011;12046;44.702;10.622;2022-09-09T16:26:28;8.02;;;2.30;;
23730;SDS011;12046;44.702;10.622;2022-09-09T16:28:56;8.35;;;2.60;;
23730;SDS011;12046;44.702;10.622;2022-09-09T16:31:24;2.90;;;2.38;;
23730;SDS011;12046;44.702;10.622;2022-09-09T16:33:50;5.00;;;2.45;;
23730;SDS011;12046;44.702;10.622;2022-09-09T16:36:19;7.43;;;1.92;;
23730;SDS011;12046;44.702;10.622;2022-09-09T16:38:47;4.50;;;2.25;;
23730;SDS011;12046;44.702;10.622;2022-09-09T16:41:17;2.17;;;1.95;;
23730;SDS011;12046;44.702;10.622;2022-09-09T16:43:44;6.47;;;2.05;;
23730;SDS011;12046;44.702;10.622;2022-09-09T16:48:41;3.33;;;2.05;;
23730;SDS011;12046;44.702;10.622;2022-09-09T16:51:09;5.03;;;1.95;;
23730;SDS011;12046;44.702;10.622;2022-09-09T16:53:49;3.15;;;2.03;;
23730;SDS011;12046;44.702;10.622;2022-09-09T16:56:17;4.20;;;1.98;;
23730;SDS011;12046;44.702;10.622;2022-09-09T16:58:53;4.97;;;2.22;;
23730;SDS011;12046;44.702;10.622;2022-09-09T17:01:21;2.33;;;1.77;;
23730;SDS011;12046;44.702;10.622;2022-09-09T17:03:51;5.03;;;1.95;;
23730;SDS011;12046;44.702;10.622;2022-09-09T17:06:26;5.10;;;1.80;;
23730;SDS011;12046;44.702;10.622;2022-09-09T17:08:59;3.42;;;1.75;;
23730;SDS011;12046;44.702;10.622;2022-09-09T17:11:27;3.40;;;1.67;;
23730;SDS011;12046;44.702;10.622;2022-09-09T17:13:54;2.90;;;1.58;;
23730;SDS011;12046;44.702;10.622;2022-09-09T17:16:23;2.63;;;1.55;;
23730;SDS011;12046;44.702;10.622;2022-09-09T17:18:53;2.08;;;1.90;;
23730;SDS011;12046;44.702;10.622;2022-09-09T17:21:21;4.05;;;1.55;;